Terminal Aerodrome Forecast
Issued by NWS Detroit/Pontiac, MI

Home | Current Version | Previous Version | Text Only | Print | Product List | Glossary On
Versions: 1 2 3 4 5 6 7 8 9 10 11 12 13 14 15 16 17
000
FTUS43 KDTX 200500
TAFFNT
TAF
KFNT 200523Z 2006/2106 22009KT P6SM SCT050 OVC090
     FM201000 21009KT P6SM SCT025 OVC050
     FM201300 23008KT 6SM -SHRA SCT010 OVC020
     FM201900 29005KT P6SM -SHRA SCT006 OVC015=

USA.gov is the U.S. government's official web portal to all federal, state and local government web resources and services.